createdAt,value
2018-01-14T00:01:07.361Z,19.40
2018-01-14T00:03:34.841Z,19.37
2018-01-14T00:06:03.087Z,14.90
2018-01-14T00:08:31.424Z,18.53
2018-01-14T00:10:58.907Z,17.40
2018-01-14T00:13:26.385Z,18.90
2018-01-14T00:15:53.871Z,21.37
2018-01-14T00:18:22.110Z,18.37
2018-01-14T00:20:49.612Z,18.50
2018-01-14T00:23:17.078Z,17.40
2018-01-14T00:25:44.553Z,18.87
2018-01-14T00:28:12.037Z,15.90
2018-01-14T00:30:39.599Z,15.03
2018-01-14T00:33:07.076Z,18.43
2018-01-14T00:35:34.537Z,19.30
2018-01-14T00:38:02.833Z,16.43
2018-01-14T00:40:30.297Z,14.87
2018-01-14T00:42:57.776Z,17.40
2018-01-14T00:45:25.429Z,16.93
2018-01-14T00:47:52.965Z,16.30
2018-01-14T00:50:21.212Z,14.50
2018-01-14T00:52:48.673Z,14.60
2018-01-14T00:55:16.160Z,15.47
2018-01-14T00:57:44.384Z,14.50
2018-01-14T01:00:11.865Z,15.87
2018-01-14T01:02:39.391Z,19.27
2018-01-14T01:05:06.874Z,18.47
2018-01-14T01:07:34.341Z,14.77
2018-01-14T01:10:02.620Z,15.40
2018-01-14T01:12:30.839Z,18.10
2018-01-14T01:14:58.313Z,19.70
2018-01-14T01:17:25.792Z,14.27
2018-01-14T01:19:53.284Z,15.33
2018-01-14T01:22:21.504Z,15.83
2018-01-14T01:24:48.984Z,16.10
2018-01-14T01:27:16.441Z,15.13
2018-01-14T01:29:44.688Z,13.63
2018-01-14T01:32:12.159Z,15.73
2018-01-14T01:34:39.637Z,14.97
2018-01-14T01:37:07.108Z,12.53
2018-01-14T01:39:36.054Z,22.10
2018-01-14T01:42:03.533Z,15.83
2018-01-14T01:44:31.085Z,15.60
2018-01-14T01:46:58.629Z,20.13
2018-01-14T01:49:26.099Z,17.93
2018-01-14T01:51:53.578Z,15.93
2018-01-14T01:54:21.932Z,19.13
2018-01-14T01:56:49.416Z,15.57
2018-01-14T01:59:17.652Z,14.30
2018-01-14T02:01:45.133Z,14.43
2018-01-14T02:04:12.613Z,17.83
2018-01-14T02:06:40.856Z,16.33
2018-01-14T02:09:08.329Z,16.67
2018-01-14T02:11:36.561Z,15.60
2018-01-14T02:14:04.035Z,14.37
2018-01-14T02:16:31.506Z,19.03
2018-01-14T02:18:58.981Z,16.37
2018-01-14T02:21:27.216Z,17.77
2018-01-14T02:23:54.711Z,16.10
2018-01-14T02:26:22.164Z,15.60
2018-01-14T02:28:50.414Z,17.77
2018-01-14T02:31:17.882Z,18.53
2018-01-14T02:33:45.364Z,16.27
2018-01-14T02:36:13.613Z,14.37
2018-01-14T02:38:41.101Z,14.90
2018-01-14T02:41:09.344Z,17.20
2018-01-14T02:43:36.829Z,18.23
2018-01-14T02:46:05.157Z,17.77
2018-01-14T02:48:32.700Z,18.00
2018-01-14T02:51:00.197Z,15.83
2018-01-14T02:53:27.660Z,18.30
2018-01-14T02:55:55.131Z,15.60
2018-01-14T02:58:23.376Z,20.07
2018-01-14T03:00:50.856Z,18.47
2018-01-14T03:03:18.329Z,19.10
2018-01-14T03:05:46.574Z,17.20
2018-01-14T03:08:14.110Z,17.73
2018-01-14T03:10:42.297Z,16.37
2018-01-14T03:13:09.779Z,14.30
2018-01-14T03:15:38.156Z,17.87
2018-01-14T03:18:05.766Z,16.43
2018-01-14T03:20:33.225Z,18.90
2018-01-14T03:23:01.558Z,14.20
2018-01-14T03:25:29.802Z,14.30
2018-01-14T03:27:57.273Z,16.60
2018-01-14T03:30:24.739Z,16.60
2018-01-14T03:32:53.062Z,15.10
2018-01-14T03:35:20.521Z,15.00
2018-01-14T03:37:48.528Z,15.07
2018-01-14T03:40:16.467Z,16.03
2018-01-14T03:42:43.939Z,14.73
2018-01-14T03:45:11.409Z,16.37
2018-01-14T03:47:38.912Z,15.90
2018-01-14T03:50:06.387Z,18.43
2018-01-14T03:52:33.876Z,14.97
2018-01-14T03:55:02.785Z,17.83
2018-01-14T03:57:30.265Z,17.93
2018-01-14T03:59:58.497Z,14.50
2018-01-14T04:02:26.125Z,16.03
2018-01-14T04:04:53.790Z,17.50
2018-01-14T04:07:21.312Z,18.60
2018-01-14T04:09:49.556Z,16.83
2018-01-14T04:12:21.544Z,15.33
2018-01-14T04:14:49.938Z,18.87
2018-01-14T04:17:18.169Z,17.67
2018-01-14T04:19:45.648Z,21.40
2018-01-14T04:22:13.909Z,19.33
2018-01-14T04:24:41.453Z,13.70
2018-01-14T04:27:08.940Z,16.20
2018-01-14T04:29:37.188Z,20.57
2018-01-14T04:32:04.652Z,17.50
2018-01-14T04:34:32.129Z,18.13
2018-01-14T04:36:59.589Z,15.17
2018-01-14T04:39:27.836Z,17.20
2018-01-14T04:41:55.400Z,14.77
2018-01-14T04:44:22.899Z,15.23
2018-01-14T04:46:51.200Z,21.17
2018-01-14T04:49:18.671Z,19.93
2018-01-14T04:51:46.146Z,18.53
2018-01-14T04:54:13.617Z,19.57
2018-01-14T04:56:41.092Z,18.23
2018-01-14T04:59:09.325Z,21.13
2018-01-14T05:01:36.821Z,17.60
2018-01-14T05:04:05.050Z,16.50
2018-01-14T05:06:32.533Z,16.60
2018-01-14T05:09:00.003Z,18.43
2018-01-14T05:11:27.506Z,18.60
2018-01-14T05:13:54.975Z,18.33
2018-01-14T05:16:22.453Z,16.93
2018-01-14T05:18:49.921Z,20.27
2018-01-14T05:21:17.410Z,18.97
2018-01-14T05:23:45.633Z,17.17
2018-01-14T05:26:13.088Z,17.40
2018-01-14T05:28:40.578Z,20.23
2018-01-14T05:31:08.096Z,17.27
2018-01-14T05:33:35.574Z,19.07
2018-01-14T05:36:03.037Z,20.10
2018-01-14T05:38:30.524Z,18.13
2018-01-14T05:40:58.753Z,18.70
2018-01-14T05:43:26.243Z,16.33
2018-01-14T05:45:53.761Z,19.70
2018-01-14T05:48:21.253Z,17.17
2018-01-14T05:50:48.721Z,16.37
2018-01-14T05:53:16.954Z,20.53
2018-01-14T05:55:44.426Z,19.67
2018-01-14T05:58:11.904Z,20.73
2018-01-14T06:00:40.132Z,19.50
2018-01-14T06:03:07.632Z,20.83
2018-01-14T06:05:36.749Z,19.90
2018-01-14T06:08:04.311Z,17.70
2018-01-14T06:10:31.792Z,22.17
2018-01-14T06:12:59.264Z,19.43
2018-01-14T06:15:26.745Z,19.07
2018-01-14T06:17:54.216Z,20.60
2018-01-14T06:20:21.841Z,19.73
2018-01-14T06:22:49.318Z,21.00
2018-01-14T06:25:16.830Z,23.60
2018-01-14T06:27:44.286Z,16.00
2018-01-14T06:30:11.776Z,16.87
2018-01-14T06:32:39.381Z,17.17
2018-01-14T06:35:07.625Z,21.50
2018-01-14T06:37:35.137Z,21.00
2018-01-14T06:40:02.644Z,20.93
2018-01-14T06:42:30.118Z,17.40
2018-01-14T06:44:58.359Z,19.87
2018-01-14T06:47:25.852Z,18.00
2018-01-14T06:49:54.182Z,21.07
2018-01-14T06:52:21.672Z,20.60
2018-01-14T06:54:49.317Z,18.40
2018-01-14T06:57:16.803Z,17.73
2018-01-14T06:59:44.254Z,19.13
2018-01-14T07:02:12.496Z,18.80
2018-01-14T07:04:39.968Z,19.07
2018-01-14T07:07:07.496Z,16.43
2018-01-14T07:09:35.124Z,16.33
2018-01-14T07:12:02.602Z,17.43
2018-01-14T07:14:30.329Z,17.13
2018-01-14T07:16:58.597Z,19.00
2018-01-14T07:19:26.311Z,25.13
2018-01-14T07:21:53.804Z,17.73
2018-01-14T07:24:21.286Z,17.10
2018-01-14T07:26:49.540Z,20.97
2018-01-14T07:29:17.261Z,18.30
2018-01-14T07:31:44.733Z,20.20
2018-01-14T07:34:12.205Z,17.07
2018-01-14T07:36:39.668Z,17.80
2018-01-14T07:39:07.148Z,18.43
2018-01-14T07:41:35.397Z,15.90
2018-01-14T07:44:02.898Z,19.10
2018-01-14T07:46:30.383Z,19.30
2018-01-14T07:48:57.837Z,19.83
2018-01-14T07:51:25.460Z,25.70
2018-01-14T07:53:53.710Z,20.40
2018-01-14T07:56:21.190Z,18.67
2018-01-14T07:58:49.602Z,17.40
2018-01-14T08:01:17.073Z,16.10
2018-01-14T08:03:44.574Z,16.10
2018-01-14T08:06:12.048Z,19.90
2018-01-14T08:08:40.302Z,21.90
2018-01-14T08:11:07.776Z,17.10
2018-01-14T08:13:36.082Z,18.87
2018-01-14T08:16:03.601Z,15.40
2018-01-14T08:18:31.064Z,19.43
2018-01-14T08:20:59.312Z,18.70
2018-01-14T08:23:26.782Z,18.93
2018-01-14T08:25:54.257Z,19.80
2018-01-14T08:28:22.689Z,18.17
2018-01-14T08:30:50.281Z,18.17
2018-01-14T08:33:17.795Z,19.43
2018-01-14T08:35:45.409Z,13.83
2018-01-14T08:38:12.907Z,17.20
2018-01-14T08:40:40.384Z,15.83
2018-01-14T08:43:07.857Z,18.60
2018-01-14T08:45:35.344Z,19.90
2018-01-14T08:48:03.576Z,21.53
2018-01-14T08:50:31.142Z,20.37
2018-01-14T08:52:58.625Z,19.90
2018-01-14T08:55:26.101Z,17.77
2018-01-14T08:57:54.349Z,26.30
2018-01-14T09:00:21.813Z,20.03
2018-01-14T09:02:49.287Z,19.53
2018-01-14T09:05:17.546Z,18.53
2018-01-14T09:07:45.052Z,19.10
2018-01-14T09:10:12.505Z,18.50
2018-01-14T09:12:40.121Z,14.80
2018-01-14T09:15:07.586Z,17.40
2018-01-14T09:17:35.828Z,20.37
2018-01-14T09:20:03.300Z,20.17
2018-01-14T09:22:30.775Z,18.90
2018-01-14T09:24:59.006Z,20.20
2018-01-14T09:27:26.492Z,20.83
2018-01-14T09:29:54.729Z,19.17
2018-01-14T09:32:22.190Z,18.50
2018-01-14T09:34:49.672Z,18.50
2018-01-14T09:37:17.164Z,21.83
2018-01-14T09:39:45.454Z,20.93
2018-01-14T09:42:12.937Z,20.80
2018-01-14T09:44:40.479Z,19.60
2018-01-14T09:47:07.941Z,19.97
2018-01-14T09:49:35.536Z,21.00
2018-01-14T09:52:03.154Z,20.77
2018-01-14T09:54:30.666Z,19.37
2018-01-14T09:56:58.132Z,20.40
2018-01-14T09:59:26.450Z,20.67
2018-01-14T10:01:53.921Z,19.17
2018-01-14T10:04:21.395Z,19.80
2018-01-14T10:06:48.915Z,21.43
2018-01-14T10:09:16.414Z,20.43
2018-01-14T10:11:43.896Z,17.03
2018-01-14T10:14:12.136Z,18.90
2018-01-14T10:16:39.630Z,19.37
2018-01-14T10:19:07.109Z,20.70
2018-01-14T10:21:34.664Z,20.43
2018-01-14T10:24:02.943Z,24.67
2018-01-14T10:26:30.433Z,20.63
2018-01-14T10:28:57.902Z,18.63
2018-01-14T10:31:25.397Z,20.97
2018-01-14T10:33:53.805Z,19.30
2018-01-14T10:36:21.349Z,18.43
2018-01-14T10:38:48.867Z,20.27
2018-01-14T10:41:16.374Z,21.83
2018-01-14T10:43:43.860Z,18.60
2018-01-14T10:46:11.333Z,21.67
2018-01-14T10:48:39.001Z,20.73
2018-01-14T10:51:06.494Z,17.20
2018-01-14T10:53:34.843Z,24.90
2018-01-14T10:56:02.939Z,17.80
2018-01-14T10:58:31.174Z,18.30
2018-01-14T11:00:58.722Z,23.10
2018-01-14T11:03:26.427Z,23.67
2018-01-14T11:05:54.093Z,20.90
2018-01-14T11:08:22.526Z,22.43
2018-01-14T11:10:50.010Z,21.40
2018-01-14T11:13:17.498Z,19.87
2018-01-14T11:15:45.046Z,21.40
2018-01-14T11:18:13.470Z,19.30
2018-01-14T11:20:41.194Z,21.00
2018-01-14T11:23:09.445Z,18.47
2018-01-14T11:25:36.917Z,21.80
2018-01-14T11:28:05.200Z,19.00
2018-01-14T11:30:33.427Z,22.40
2018-01-14T11:33:00.902Z,20.93
2018-01-14T11:35:28.419Z,23.00
2018-01-14T11:37:55.907Z,21.27
2018-01-14T11:40:23.385Z,18.83
2018-01-14T11:42:50.865Z,22.00
2018-01-14T11:45:18.829Z,18.97
2018-01-14T11:47:47.070Z,22.97
2018-01-14T11:50:14.573Z,23.20
2018-01-14T11:52:42.184Z,19.93
2018-01-14T11:55:09.872Z,19.47
2018-01-14T11:57:38.111Z,20.13
2018-01-14T12:00:05.668Z,20.80
2018-01-14T12:02:33.131Z,20.90
2018-01-14T12:05:00.643Z,23.27
2018-01-14T12:07:28.866Z,19.53
2018-01-14T12:09:56.429Z,20.17
2018-01-14T12:12:23.893Z,22.33
2018-01-14T12:14:53.686Z,21.73
2018-01-14T12:17:21.168Z,19.23
2018-01-14T12:19:48.637Z,22.67
2018-01-14T12:22:16.883Z,21.17
2018-01-14T12:24:44.379Z,21.07
2018-01-14T12:27:12.844Z,20.50
2018-01-14T12:29:40.484Z,18.67
2018-01-14T12:32:08.117Z,21.30
2018-01-14T12:34:40.141Z,18.43
2018-01-14T12:37:08.402Z,19.80
2018-01-14T12:39:35.926Z,17.77
2018-01-14T12:42:03.443Z,19.27
2018-01-14T12:44:31.835Z,16.43
2018-01-14T12:46:59.562Z,20.70
2018-01-14T12:49:27.048Z,16.03
2018-01-14T12:51:54.525Z,18.07
2018-01-14T12:54:22.002Z,18.90
2018-01-14T12:56:49.477Z,19.20
2018-01-14T12:59:17.061Z,23.23
2018-01-14T13:01:45.343Z,19.27
2018-01-14T13:04:13.570Z,18.53
2018-01-14T13:06:41.046Z,18.70
2018-01-14T13:09:08.518Z,17.77
2018-01-14T13:11:35.977Z,20.33
2018-01-14T13:14:04.470Z,22.53
2018-01-14T13:16:32.726Z,16.93
2018-01-14T13:19:00.954Z,14.50
2018-01-14T13:21:28.460Z,17.70
2018-01-14T13:23:56.145Z,16.27
2018-01-14T13:26:23.612Z,18.77
2018-01-14T13:28:51.106Z,21.50
2018-01-14T13:31:18.704Z,20.27
2018-01-14T13:33:47.560Z,19.63
2018-01-14T13:36:15.834Z,19.03
2018-01-14T13:38:43.424Z,18.90
2018-01-14T13:41:10.889Z,20.67
2018-01-14T13:43:39.128Z,19.30
2018-01-14T13:46:06.716Z,14.57
2018-01-14T13:48:34.192Z,18.07
2018-01-14T13:51:02.440Z,21.10
2018-01-14T13:53:29.925Z,20.93
2018-01-14T13:55:58.174Z,18.83
2018-01-14T13:58:25.649Z,17.90
2018-01-14T14:00:53.961Z,20.40
2018-01-14T14:03:21.425Z,23.50
2018-01-14T14:05:48.894Z,19.90
2018-01-14T14:08:16.370Z,20.40
2018-01-14T14:10:43.879Z,20.47
2018-01-14T14:13:11.395Z,18.03
2018-01-14T14:15:39.037Z,20.87
2018-01-14T14:18:06.562Z,23.20
2018-01-14T14:20:35.164Z,25.80
2018-01-14T14:23:02.707Z,22.13
2018-01-14T14:25:30.317Z,23.33
2018-01-14T14:27:57.906Z,19.87
2018-01-14T14:30:26.837Z,20.23
2018-01-14T14:32:54.335Z,26.77
2018-01-14T14:35:21.985Z,21.93
2018-01-14T14:37:49.509Z,21.13
2018-01-14T14:40:17.115Z,20.27
2018-01-14T14:42:44.587Z,22.07
2018-01-14T14:45:12.846Z,17.67
2018-01-14T14:47:41.076Z,22.00
2018-01-14T14:50:08.578Z,21.73
2018-01-14T14:52:36.045Z,22.73
2018-01-14T14:55:04.381Z,20.83
2018-01-14T14:57:31.863Z,18.10
2018-01-14T15:00:00.122Z,26.53
2018-01-14T15:02:27.610Z,20.30
2018-01-14T15:04:55.885Z,17.60
2018-01-14T15:07:24.124Z,19.20
2018-01-14T15:09:51.615Z,21.00
2018-01-14T15:12:19.874Z,21.93
2018-01-14T15:14:47.364Z,20.37
2018-01-14T15:17:15.602Z,17.93
2018-01-14T15:19:43.163Z,22.83
2018-01-14T15:22:10.656Z,21.23
2018-01-14T15:24:38.127Z,19.20
2018-01-14T15:27:05.598Z,18.17
2018-01-14T15:29:33.056Z,21.27
2018-01-14T15:32:00.533Z,19.23
2018-01-14T15:34:28.012Z,20.00
2018-01-14T15:36:55.574Z,17.43
2018-01-14T15:39:23.436Z,23.50
2018-01-14T15:41:50.914Z,22.60
2018-01-14T15:44:19.153Z,22.33
2018-01-14T15:46:46.856Z,22.63
2018-01-14T15:49:15.225Z,24.60
2018-01-14T15:51:43.477Z,20.00
2018-01-14T15:54:11.005Z,21.83
2018-01-14T15:56:38.483Z,23.23
2018-01-14T15:59:06.122Z,24.43
2018-01-14T16:01:34.426Z,20.27
2018-01-14T16:04:01.918Z,20.73
2018-01-14T16:06:30.275Z,21.77
2018-01-14T16:08:57.832Z,18.40
2018-01-14T16:11:25.373Z,22.83
2018-01-14T16:13:52.868Z,23.47
2018-01-14T16:16:22.109Z,21.67
2018-01-14T16:18:49.731Z,23.03
2018-01-14T16:21:22.645Z,19.50
2018-01-14T16:23:50.221Z,23.80
2018-01-14T16:26:17.697Z,20.53
2018-01-14T16:28:45.164Z,23.07
2018-01-14T16:31:13.428Z,19.60
2018-01-14T16:33:40.897Z,21.30
2018-01-14T16:36:08.677Z,21.77
2018-01-14T16:38:36.918Z,22.23
2018-01-14T16:41:04.420Z,21.13
2018-01-14T16:43:32.649Z,20.90
2018-01-14T16:46:00.129Z,22.17
2018-01-14T16:48:27.609Z,19.80
2018-01-14T16:50:55.096Z,19.40
2018-01-14T16:53:22.596Z,20.23
2018-01-14T16:55:50.072Z,20.50
2018-01-14T16:58:18.337Z,20.63
2018-01-14T17:00:45.826Z,19.57
2018-01-14T17:03:13.318Z,22.57
2018-01-14T17:05:40.802Z,21.47
2018-01-14T17:08:08.456Z,22.30
2018-01-14T17:10:35.898Z,20.93
2018-01-14T17:13:03.592Z,21.90
2018-01-14T17:15:31.825Z,25.57
2018-01-14T17:18:00.248Z,21.03
2018-01-14T17:20:27.713Z,28.67
2018-01-14T17:22:55.970Z,20.80
2018-01-14T17:25:23.452Z,23.47
2018-01-14T17:27:50.935Z,23.20
2018-01-14T17:30:18.406Z,21.37
2018-01-14T17:32:46.694Z,21.17
2018-01-14T17:35:14.196Z,18.83
2018-01-14T17:37:42.684Z,20.57
2018-01-14T17:40:10.189Z,24.03
2018-01-14T17:42:38.617Z,23.03
2018-01-14T17:45:07.768Z,22.77
2018-01-14T17:47:35.325Z,22.40
2018-01-14T17:50:03.828Z,25.40
2018-01-14T17:52:31.475Z,21.67
2018-01-14T17:54:58.962Z,23.77
2018-01-14T17:57:27.281Z,21.90
2018-01-14T17:59:55.004Z,20.70
2018-01-14T18:02:23.283Z,26.63
2018-01-14T18:04:51.557Z,25.87
2018-01-14T18:07:19.837Z,23.70
2018-01-14T18:09:48.256Z,24.73
2018-01-14T18:12:16.486Z,24.77
2018-01-14T18:14:44.848Z,27.13
2018-01-14T18:17:25.251Z,31.00
2018-01-14T18:19:53.537Z,25.63
2018-01-14T18:22:21.748Z,27.50
2018-01-14T18:24:50.273Z,25.50
2018-01-14T18:27:18.778Z,24.47
2018-01-14T18:29:46.452Z,22.87
2018-01-14T18:32:14.752Z,20.27
2018-01-14T18:34:42.480Z,20.80
2018-01-14T18:37:09.934Z,24.80
2018-01-14T18:39:37.412Z,24.60
2018-01-14T18:42:04.899Z,24.20
2018-01-14T18:44:32.417Z,23.03
2018-01-14T18:47:00.247Z,27.70
2018-01-14T18:49:28.545Z,24.17
2018-01-14T18:51:56.036Z,25.43
2018-01-14T18:57:02.644Z,27.20
2018-01-14T18:59:31.605Z,24.57
2018-01-14T19:01:59.542Z,28.43
2018-01-14T19:04:27.058Z,28.03
2018-01-14T19:06:55.317Z,23.60
2018-01-14T19:09:23.561Z,23.67
2018-01-14T19:11:51.063Z,29.50
2018-01-14T19:14:18.548Z,24.77
2018-01-14T19:16:46.114Z,23.53
2018-01-14T19:19:13.759Z,25.93
2018-01-14T19:21:42.028Z,27.13
2018-01-14T19:24:10.505Z,20.10
2018-01-14T19:26:37.986Z,30.33
2018-01-14T19:29:05.463Z,22.73
2018-01-14T19:31:32.984Z,27.70
2018-01-14T19:34:01.249Z,27.17
2018-01-14T19:36:28.727Z,28.67
2018-01-14T19:38:56.980Z,26.43
2018-01-14T19:41:25.223Z,30.00
2018-01-14T19:43:52.692Z,25.40
2018-01-14T19:46:20.181Z,20.93
2018-01-14T19:48:48.475Z,24.57
2018-01-14T19:51:16.943Z,27.30
2018-01-14T19:53:45.193Z,21.20
2018-01-14T19:56:12.849Z,26.63
2018-01-14T19:58:40.334Z,23.73
2018-01-14T20:01:08.670Z,22.70
2018-01-14T20:03:36.170Z,22.93
2018-01-14T20:06:04.416Z,22.00
2018-01-14T20:08:31.916Z,24.40
2018-01-14T20:10:59.404Z,25.43
2018-01-14T20:13:26.964Z,21.57
2018-01-14T20:15:54.458Z,24.03
2018-01-14T20:18:22.110Z,22.33
2018-01-14T20:20:49.917Z,19.87
2018-01-14T20:23:17.418Z,25.83
2018-01-14T20:25:45.036Z,27.07
2018-01-14T20:28:12.538Z,24.03
2018-01-14T20:30:40.235Z,21.07
2018-01-14T20:33:08.483Z,24.20
2018-01-14T20:35:35.986Z,23.20
2018-01-14T20:38:04.221Z,23.80
2018-01-14T20:40:31.751Z,30.83
2018-01-14T20:42:59.223Z,25.10
2018-01-14T20:45:26.733Z,24.00
2018-01-14T20:47:55.164Z,24.30
2018-01-14T20:50:22.666Z,23.07
2018-01-14T20:52:51.252Z,23.80
2018-01-14T20:55:18.741Z,25.27
2018-01-14T20:57:46.267Z,22.33
2018-01-14T21:00:14.494Z,22.70
2018-01-14T21:02:42.002Z,25.27
2018-01-14T21:05:10.458Z,25.53
2018-01-14T21:07:37.968Z,25.37
2018-01-14T21:10:05.436Z,24.47
2018-01-14T21:12:32.979Z,26.90
2018-01-14T21:15:00.589Z,22.90
2018-01-14T21:17:28.095Z,25.53
2018-01-14T21:19:55.588Z,26.27
2018-01-14T21:22:23.788Z,23.40
2018-01-14T21:24:51.252Z,27.60
2018-01-14T21:27:19.620Z,27.77
2018-01-14T21:29:47.884Z,25.90
2018-01-14T21:32:15.365Z,23.53
2018-01-14T21:34:43.651Z,27.97
2018-01-14T21:37:11.130Z,32.17
2018-01-14T21:39:38.628Z,24.23
2018-01-14T21:42:06.110Z,25.23
2018-01-14T21:44:34.355Z,23.83
2018-01-14T21:47:02.520Z,25.00
2018-01-14T21:49:29.995Z,25.60
2018-01-14T21:51:57.486Z,24.63
2018-01-14T21:54:24.968Z,23.10
2018-01-14T21:56:52.446Z,25.10
2018-01-14T21:59:19.938Z,23.93
2018-01-14T22:01:48.209Z,26.80
2018-01-14T22:04:16.537Z,25.73
2018-01-14T22:06:44.098Z,25.67
2018-01-14T22:09:11.578Z,26.17
2018-01-14T22:11:45.028Z,27.03
2018-01-14T22:14:12.528Z,24.47
2018-01-14T22:16:40.162Z,29.93
2018-01-14T22:19:07.665Z,29.50
2018-01-14T22:21:35.951Z,28.10
2018-01-14T22:24:03.467Z,30.50
2018-01-14T22:26:30.956Z,28.80
2018-01-14T22:28:58.429Z,29.40
2018-01-14T22:31:26.752Z,22.20
2018-01-14T22:33:54.328Z,26.53
2018-01-14T22:36:21.894Z,25.50
2018-01-14T22:38:49.358Z,24.20
2018-01-14T22:41:17.038Z,25.53
2018-01-14T22:43:45.697Z,28.87
2018-01-14T22:46:13.263Z,25.53
2018-01-14T22:48:40.796Z,27.83
2018-01-14T22:51:08.309Z,26.60
2018-01-14T22:53:36.633Z,27.10
2018-01-14T22:56:04.308Z,32.40
2018-01-14T22:58:31.965Z,26.30
2018-01-14T23:00:59.910Z,28.00
2018-01-14T23:03:27.419Z,26.60
2018-01-14T23:05:54.896Z,24.27
2018-01-14T23:08:23.228Z,26.90
2018-01-14T23:10:50.793Z,26.30
2018-01-14T23:13:18.229Z,22.17
2018-01-14T23:15:45.707Z,33.77
2018-01-14T23:18:13.214Z,24.30
2018-01-14T23:20:40.787Z,23.37
2018-01-14T23:23:08.279Z,26.13
2018-01-14T23:25:35.776Z,24.03
2018-01-14T23:28:04.029Z,27.90
2018-01-14T23:30:31.498Z,23.73
2018-01-14T23:32:59.751Z,25.67
2018-01-14T23:35:27.225Z,29.57
2018-01-14T23:37:54.711Z,23.10
2018-01-14T23:40:22.215Z,30.30
2018-01-14T23:42:49.698Z,23.73
2018-01-14T23:45:17.171Z,25.27
2018-01-14T23:47:45.430Z,24.83
2018-01-14T23:50:13.030Z,22.87
2018-01-14T23:52:40.506Z,26.73
2018-01-14T23:55:08.102Z,24.10
2018-01-14T23:57:35.565Z,26.30
